LFPM 221930Z AUTO 29008KT 9999 BKN030 OVC036 09/05 Q1021

2018/01/22 19:30 LFPM 221930Z AUTO 29008KT 9999 BKN030 OVC036 09/05 Q1021

LFFA-E3883/17
Q) LFFF/QFAXX/IV/NBO/ A/000/999/4849N00237E005
A) LFPL LOGNES EMERAINVILLE
B) 2017 Oct 26 16:31 C) 2018 Jan 25 23:59
E) PLAN DE VOL Y: CHAMP 15: RENSEIGNER OBLIGATOIREMENT BRY COMME
DERNIER POINT IFR DE LA ROUTE.
REF AIP FRANCE VAC AD2 LFPL TXT


LFFA-E4535/17
Q) LFFF/QFULT/IV/NBO/ A/000/999/4849N00237E005
A) LFPL LOGNES EMERAINVILLE
B) 2017 Dec 20 08:25 C) 2018 Mar 18 23:59
E) POMPE 2 100LL HORS SERVICE.


LFFA-E0006/18
Q) LFFF/QMRLC/IV/NBO/ A/000/999/4849N00237E005
A) LFPL LOGNES EMERAINVILLE
B) 2018 Jan 02 08:30 C) 2018 Jan 29 09:00
E) PISTE 08/26 NON REVETUE FERMES AUX AVIONS ET ULM


LFFA-E0007/18
Q) LFFF/QMXLC/IV/ M/ A/000/999/4849N00237E005
A) LFPL LOGNES EMERAINVILLE
B) 2018 Jan 02 08:31 C) 2018 Jan 29 09:00
E) TAXIWAYS NON REVETUS S ET W FERMES AUX AVIONS ET ULM.


LFFA-E0184/18
Q) LFFF/QMRLT/IV/NBO/ A/000/999/4849N00237E005
A) LFPL LOGNES EMERAINVILLE
B) 2018 Jan 16 10:42 C) 2018 Apr 16 23:59
E) CONSIGNES PARTICULIERES DE RADIOCOMMUNICATION PENDANT SERVICES ATS:
LIRE : 'DEPART : AU POINT D'ATTENTE, SUR INSTRUCTION DU CONTROLE
LOGNES SOL, LE PILOTE MAINTIENT AVANT LE POINT D'ATTENTE, VEILLE LA
FREQ TWR ET ATTEND L'APPEL DU CONTROLEUR TWR.'
REFERENCE AIP FRANCE AD 2 LFPL TXT 02.


LFFA-E0199/18
Q) LFFF/QMKLC/IV/ BO/ A/000/999/4849N00237E005
A) LFPL LOGNES EMERAINVILLE
B) 2018 Jan 17 09:01 C) 2018 Jan 29 09:00
E) PARKING NON REVETU FERME


LFFA-P0008/18
Q) LFFF/QOBCE/IV/ M/AE/000/005/4849N00239E001
A) LFPL LOGNES EMERAINVILLE
B) 2018 Jan 04 00:00 C) 2018 Nov 30 23:59
E) GRUE ERIGEE RDL105/0.85NM LFPL ARP :
PSN : 484906N 0023837E
ALTITUDE AU SOMMET : 456FT
HAUTEUR : 112FT
BALISAGE : JOUR ET NUIT


LFFA-W0010/18
Q) LFFF/QWZLW/IV/ M/AW/000/006/4849N00237E005
A) LFPL LOGNES EMERAINVILLE
B) 2018 Jan 09 11:19 C) 2018 Apr 08 11:00
E) AEROMODELISME SUR AD LOGNES RDL290/220M ARP:
PSN : 484921N 0023712E
F) SFC
G) 150FT AGL
 

Liens externes